sensor_id;sensor_type;location;lat;lon;timestamp;P1;durP1;ratioP1;P2;durP2;ratioP2
19280;SDS011;9774;52.034;5.342;2023-11-21T00:01:32;10.13;;;6.93;;
19280;SDS011;9774;52.034;5.342;2023-11-21T00:03:59;11.05;;;7.28;;
19280;SDS011;9774;52.034;5.342;2023-11-21T00:06:26;16.05;;;8.27;;
19280;SDS011;9774;52.034;5.342;2023-11-21T00:08:56;13.93;;;7.63;;
19280;SDS011;9774;52.034;5.342;2023-11-21T00:11:23;17.33;;;8.73;;
19280;SDS011;9774;52.034;5.342;2023-11-21T00:13:50;14.82;;;8.13;;
19280;SDS011;9774;52.034;5.342;2023-11-21T00:16:17;15.27;;;8.40;;
19280;SDS011;9774;52.034;5.342;2023-11-21T00:18:45;17.33;;;8.55;;
19280;SDS011;9774;52.034;5.342;2023-11-21T00:21:12;17.40;;;8.13;;
19280;SDS011;9774;52.034;5.342;2023-11-21T00:23:39;13.75;;;8.30;;
19280;SDS011;9774;52.034;5.342;2023-11-21T00:26:06;14.88;;;7.53;;
19280;SDS011;9774;52.034;5.342;2023-11-21T00:28:33;16.15;;;8.43;;
19280;SDS011;9774;52.034;5.342;2023-11-21T00:31:00;15.13;;;8.07;;
19280;SDS011;9774;52.034;5.342;2023-11-21T00:33:27;14.20;;;7.18;;
19280;SDS011;9774;52.034;5.342;2023-11-21T00:35:55;14.00;;;7.53;;
19280;SDS011;9774;52.034;5.342;2023-11-21T00:38:22;15.23;;;7.32;;
19280;SDS011;9774;52.034;5.342;2023-11-21T00:40:49;11.13;;;7.38;;
19280;SDS011;9774;52.034;5.342;2023-11-21T00:43:18;11.98;;;7.32;;
19280;SDS011;9774;52.034;5.342;2023-11-21T00:45:45;11.70;;;6.55;;
19280;SDS011;9774;52.034;5.342;2023-11-21T00:48:14;12.55;;;7.22;;
19280;SDS011;9774;52.034;5.342;2023-11-21T00:50:41;11.80;;;6.65;;
19280;SDS011;9774;52.034;5.342;2023-11-21T00:53:09;10.10;;;6.82;;
19280;SDS011;9774;52.034;5.342;2023-11-21T00:55:37;8.80;;;6.22;;
19280;SDS011;9774;52.034;5.342;2023-11-21T00:58:05;12.02;;;6.57;;
19280;SDS011;9774;52.034;5.342;2023-11-21T01:00:32;12.18;;;6.30;;
19280;SDS011;9774;52.034;5.342;2023-11-21T01:02:59;12.50;;;6.10;;
19280;SDS011;9774;52.034;5.342;2023-11-21T01:05:27;12.10;;;6.28;;
19280;SDS011;9774;52.034;5.342;2023-11-21T01:07:54;10.93;;;5.55;;
19280;SDS011;9774;52.034;5.342;2023-11-21T01:10:23;9.23;;;6.65;;
19280;SDS011;9774;52.034;5.342;2023-11-21T01:12:50;8.95;;;5.80;;
19280;SDS011;9774;52.034;5.342;2023-11-21T01:15:17;10.77;;;5.95;;
19280;SDS011;9774;52.034;5.342;2023-11-21T01:17:44;7.95;;;5.55;;
19280;SDS011;9774;52.034;5.342;2023-11-21T01:20:11;8.65;;;5.78;;
19280;SDS011;9774;52.034;5.342;2023-11-21T01:22:38;11.10;;;5.55;;
19280;SDS011;9774;52.034;5.342;2023-11-21T01:25:06;7.22;;;4.43;;
19280;SDS011;9774;52.034;5.342;2023-11-21T01:27:34;7.82;;;4.53;;
19280;SDS011;9774;52.034;5.342;2023-11-21T01:30:02;7.40;;;4.55;;
19280;SDS011;9774;52.034;5.342;2023-11-21T01:32:30;6.25;;;4.78;;
19280;SDS011;9774;52.034;5.342;2023-11-21T01:34:57;8.15;;;5.55;;
19280;SDS011;9774;52.034;5.342;2023-11-21T01:37:24;7.85;;;4.65;;
19280;SDS011;9774;52.034;5.342;2023-11-21T01:39:53;6.38;;;4.63;;
19280;SDS011;9774;52.034;5.342;2023-11-21T01:42:20;6.07;;;5.07;;
19280;SDS011;9774;52.034;5.342;2023-11-21T01:44:49;7.50;;;5.05;;
19280;SDS011;9774;52.034;5.342;2023-11-21T01:47:16;6.38;;;4.32;;
19280;SDS011;9774;52.034;5.342;2023-11-21T01:49:44;5.82;;;4.65;;
19280;SDS011;9774;52.034;5.342;2023-11-21T01:52:12;5.40;;;4.57;;
19280;SDS011;9774;52.034;5.342;2023-11-21T01:54:40;5.32;;;4.47;;
19280;SDS011;9774;52.034;5.342;2023-11-21T01:57:07;5.50;;;4.32;;
19280;SDS011;9774;52.034;5.342;2023-11-21T01:59:35;6.47;;;4.43;;
19280;SDS011;9774;52.034;5.342;2023-11-21T02:02:05;6.43;;;5.07;;
19280;SDS011;9774;52.034;5.342;2023-11-21T02:04:33;6.03;;;4.90;;
19280;SDS011;9774;52.034;5.342;2023-11-21T02:07:00;8.07;;;4.88;;
19280;SDS011;9774;52.034;5.342;2023-11-21T02:09:27;9.30;;;4.65;;
19280;SDS011;9774;52.034;5.342;2023-11-21T02:11:56;6.18;;;4.60;;
19280;SDS011;9774;52.034;5.342;2023-11-21T02:14:23;6.63;;;4.38;;
19280;SDS011;9774;52.034;5.342;2023-11-21T02:16:52;6.80;;;4.68;;
19280;SDS011;9774;52.034;5.342;2023-11-21T02:19:21;5.85;;;4.40;;
19280;SDS011;9774;52.034;5.342;2023-11-21T02:21:51;5.72;;;4.65;;
19280;SDS011;9774;52.034;5.342;2023-11-21T02:24:20;6.10;;;4.80;;
19280;SDS011;9774;52.034;5.342;2023-11-21T02:26:48;6.70;;;4.93;;
19280;SDS011;9774;52.034;5.342;2023-11-21T02:29:17;5.57;;;4.60;;
19280;SDS011;9774;52.034;5.342;2023-11-21T02:31:47;6.65;;;4.88;;
19280;SDS011;9774;52.034;5.342;2023-11-21T02:34:16;6.28;;;4.78;;
19280;SDS011;9774;52.034;5.342;2023-11-21T02:36:44;8.52;;;4.88;;
19280;SDS011;9774;52.034;5.342;2023-11-21T02:39:12;7.03;;;5.22;;
19280;SDS011;9774;52.034;5.342;2023-11-21T02:41:40;5.50;;;4.30;;
19280;SDS011;9774;52.034;5.342;2023-11-21T02:44:08;6.05;;;4.63;;
19280;SDS011;9774;52.034;5.342;2023-11-21T02:46:35;5.68;;;4.15;;
19280;SDS011;9774;52.034;5.342;2023-11-21T02:49:05;7.13;;;5.32;;
19280;SDS011;9774;52.034;5.342;2023-11-21T02:51:34;6.22;;;5.00;;
19280;SDS011;9774;52.034;5.342;2023-11-21T02:54:03;5.53;;;4.47;;
19280;SDS011;9774;52.034;5.342;2023-11-21T02:56:31;6.50;;;4.68;;
19280;SDS011;9774;52.034;5.342;2023-11-21T02:59:00;6.40;;;4.68;;
19280;SDS011;9774;52.034;5.342;2023-11-21T03:01:27;8.73;;;5.03;;
19280;SDS011;9774;52.034;5.342;2023-11-21T03:03:54;5.25;;;4.50;;
19280;SDS011;9774;52.034;5.342;2023-11-21T03:06:22;6.38;;;4.97;;
19280;SDS011;9774;52.034;5.342;2023-11-21T03:08:49;7.22;;;5.35;;
19280;SDS011;9774;52.034;5.342;2023-11-21T03:11:16;6.70;;;5.38;;
19280;SDS011;9774;52.034;5.342;2023-11-21T03:13:43;5.32;;;4.65;;
19280;SDS011;9774;52.034;5.342;2023-11-21T03:16:13;6.80;;;5.22;;
19280;SDS011;9774;52.034;5.342;2023-11-21T03:18:41;5.95;;;4.50;;
19280;SDS011;9774;52.034;5.342;2023-11-21T03:21:09;12.30;;;5.97;;
19280;SDS011;9774;52.034;5.342;2023-11-21T03:23:36;6.18;;;4.95;;
19280;SDS011;9774;52.034;5.342;2023-11-21T03:26:04;7.18;;;4.95;;
19280;SDS011;9774;52.034;5.342;2023-11-21T03:28:33;6.38;;;4.70;;
19280;SDS011;9774;52.034;5.342;2023-11-21T03:31:00;7.20;;;5.30;;
19280;SDS011;9774;52.034;5.342;2023-11-21T03:33:29;7.13;;;4.72;;
19280;SDS011;9774;52.034;5.342;2023-11-21T03:35:56;8.02;;;4.97;;
19280;SDS011;9774;52.034;5.342;2023-11-21T03:38:22;6.68;;;5.35;;
19280;SDS011;9774;52.034;5.342;2023-11-21T03:40:50;8.30;;;4.75;;
19280;SDS011;9774;52.034;5.342;2023-11-21T03:43:17;7.13;;;5.18;;
19280;SDS011;9774;52.034;5.342;2023-11-21T03:45:44;8.73;;;5.50;;
19280;SDS011;9774;52.034;5.342;2023-11-21T03:48:12;6.05;;;4.75;;
19280;SDS011;9774;52.034;5.342;2023-11-21T03:50:41;5.63;;;4.25;;
19280;SDS011;9774;52.034;5.342;2023-11-21T03:53:08;6.97;;;5.22;;
19280;SDS011;9774;52.034;5.342;2023-11-21T03:55:35;9.77;;;5.05;;
19280;SDS011;9774;52.034;5.342;2023-11-21T03:58:01;7.03;;;5.05;;
19280;SDS011;9774;52.034;5.342;2023-11-21T04:00:29;8.10;;;5.38;;
19280;SDS011;9774;52.034;5.342;2023-11-21T04:02:57;8.52;;;5.13;;
19280;SDS011;9774;52.034;5.342;2023-11-21T04:05:24;6.55;;;4.88;;
19280;SDS011;9774;52.034;5.342;2023-11-21T04:07:53;6.55;;;5.22;;
19280;SDS011;9774;52.034;5.342;2023-11-21T04:10:20;7.22;;;4.85;;
19280;SDS011;9774;52.034;5.342;2023-11-21T04:12:47;7.38;;;5.10;;
19280;SDS011;9774;52.034;5.342;2023-11-21T04:15:14;6.63;;;5.18;;
19280;SDS011;9774;52.034;5.342;2023-11-21T04:17:42;9.68;;;5.85;;
19280;SDS011;9774;52.034;5.342;2023-11-21T04:20:10;7.95;;;4.85;;
19280;SDS011;9774;52.034;5.342;2023-11-21T04:22:38;7.25;;;5.45;;
19280;SDS011;9774;52.034;5.342;2023-11-21T04:25:10;6.68;;;5.63;;
19280;SDS011;9774;52.034;5.342;2023-11-21T04:27:39;7.93;;;4.57;;
19280;SDS011;9774;52.034;5.342;2023-11-21T04:30:08;7.25;;;5.47;;
19280;SDS011;9774;52.034;5.342;2023-11-21T04:32:36;6.00;;;5.25;;
19280;SDS011;9774;52.034;5.342;2023-11-21T04:35:04;6.30;;;4.85;;
19280;SDS011;9774;52.034;5.342;2023-11-21T04:37:33;5.75;;;4.65;;
19280;SDS011;9774;52.034;5.342;2023-11-21T04:40:00;5.95;;;4.40;;
19280;SDS011;9774;52.034;5.342;2023-11-21T04:42:32;5.97;;;4.32;;
19280;SDS011;9774;52.034;5.342;2023-11-21T04:45:01;6.50;;;4.93;;
19280;SDS011;9774;52.034;5.342;2023-11-21T04:47:30;5.70;;;4.25;;
19280;SDS011;9774;52.034;5.342;2023-11-21T04:49:57;9.32;;;5.38;;
19280;SDS011;9774;52.034;5.342;2023-11-21T04:52:24;7.38;;;5.05;;
19280;SDS011;9774;52.034;5.342;2023-11-21T04:54:51;6.97;;;4.95;;
19280;SDS011;9774;52.034;5.342;2023-11-21T04:57:19;5.80;;;4.82;;
19280;SDS011;9774;52.034;5.342;2023-11-21T04:59:48;5.63;;;4.28;;
19280;SDS011;9774;52.034;5.342;2023-11-21T05:02:15;6.18;;;4.78;;
19280;SDS011;9774;52.034;5.342;2023-11-21T05:04:44;5.15;;;4.22;;
19280;SDS011;9774;52.034;5.342;2023-11-21T05:07:11;6.00;;;4.78;;
19280;SDS011;9774;52.034;5.342;2023-11-21T05:09:40;6.00;;;5.00;;
19280;SDS011;9774;52.034;5.342;2023-11-21T05:12:11;6.53;;;4.85;;
19280;SDS011;9774;52.034;5.342;2023-11-21T05:14:39;6.50;;;4.85;;
19280;SDS011;9774;52.034;5.342;2023-11-21T05:17:08;7.82;;;5.07;;
19280;SDS011;9774;52.034;5.342;2023-11-21T05:19:35;6.13;;;4.75;;
19280;SDS011;9774;52.034;5.342;2023-11-21T05:22:02;7.22;;;5.43;;
19280;SDS011;9774;52.034;5.342;2023-11-21T05:24:30;7.80;;;5.35;;
19280;SDS011;9774;52.034;5.342;2023-11-21T05:26:57;8.40;;;5.03;;
19280;SDS011;9774;52.034;5.342;2023-11-21T05:29:24;9.65;;;5.13;;
19280;SDS011;9774;52.034;5.342;2023-11-21T05:31:53;9.50;;;4.57;;
19280;SDS011;9774;52.034;5.342;2023-11-21T05:34:21;7.90;;;4.97;;
19280;SDS011;9774;52.034;5.342;2023-11-21T05:36:49;11.23;;;5.53;;
19280;SDS011;9774;52.034;5.342;2023-11-21T05:39:16;7.18;;;4.63;;
19280;SDS011;9774;52.034;5.342;2023-11-21T05:41:44;8.40;;;4.78;;
19280;SDS011;9774;52.034;5.342;2023-11-21T05:44:11;9.82;;;5.07;;
19280;SDS011;9774;52.034;5.342;2023-11-21T05:46:39;6.97;;;4.15;;
19280;SDS011;9774;52.034;5.342;2023-11-21T05:49:08;7.93;;;4.95;;
19280;SDS011;9774;52.034;5.342;2023-11-21T05:51:37;6.25;;;4.82;;
19280;SDS011;9774;52.034;5.342;2023-11-21T05:54:04;8.10;;;5.03;;
19280;SDS011;9774;52.034;5.342;2023-11-21T05:56:31;6.80;;;4.82;;
19280;SDS011;9774;52.034;5.342;2023-11-21T05:58:58;10.02;;;5.75;;
19280;SDS011;9774;52.034;5.342;2023-11-21T06:01:25;7.85;;;4.85;;
19280;SDS011;9774;52.034;5.342;2023-11-21T06:03:53;6.18;;;4.40;;
19280;SDS011;9774;52.034;5.342;2023-11-21T06:06:20;7.07;;;4.47;;
19280;SDS011;9774;52.034;5.342;2023-11-21T06:08:51;11.93;;;7.97;;
19280;SDS011;9774;52.034;5.342;2023-11-21T06:11:18;9.60;;;6.22;;
19280;SDS011;9774;52.034;5.342;2023-11-21T06:13:45;8.30;;;4.85;;
19280;SDS011;9774;52.034;5.342;2023-11-21T06:16:13;8.25;;;4.85;;
19280;SDS011;9774;52.034;5.342;2023-11-21T06:18:42;7.18;;;4.78;;
19280;SDS011;9774;52.034;5.342;2023-11-21T06:21:09;7.90;;;5.57;;
19280;SDS011;9774;52.034;5.342;2023-11-21T06:23:37;7.53;;;4.90;;
19280;SDS011;9774;52.034;5.342;2023-11-21T06:26:05;7.45;;;5.15;;
19280;SDS011;9774;52.034;5.342;2023-11-21T06:28:34;7.63;;;4.50;;
19280;SDS011;9774;52.034;5.342;2023-11-21T06:31:01;7.32;;;4.65;;
19280;SDS011;9774;52.034;5.342;2023-11-21T06:33:30;7.85;;;4.82;;
19280;SDS011;9774;52.034;5.342;2023-11-21T06:35:57;8.82;;;4.70;;
19280;SDS011;9774;52.034;5.342;2023-11-21T06:38:25;6.88;;;4.07;;
19280;SDS011;9774;52.034;5.342;2023-11-21T06:40:55;5.50;;;4.32;;
19280;SDS011;9774;52.034;5.342;2023-11-21T06:43:24;6.93;;;4.53;;
19280;SDS011;9774;52.034;5.342;2023-11-21T06:45:52;8.43;;;4.60;;
19280;SDS011;9774;52.034;5.342;2023-11-21T06:48:19;6.75;;;4.10;;
19280;SDS011;9774;52.034;5.342;2023-11-21T06:50:46;7.00;;;4.78;;
19280;SDS011;9774;52.034;5.342;2023-11-21T06:53:13;7.97;;;4.18;;
19280;SDS011;9774;52.034;5.342;2023-11-21T06:55:40;7.00;;;4.55;;
19280;SDS011;9774;52.034;5.342;2023-11-21T06:58:07;7.72;;;4.22;;
19280;SDS011;9774;52.034;5.342;2023-11-21T07:00:36;7.43;;;4.05;;
19280;SDS011;9774;52.034;5.342;2023-11-21T07:03:03;8.95;;;4.47;;
19280;SDS011;9774;52.034;5.342;2023-11-21T07:05:30;7.47;;;4.45;;
19280;SDS011;9774;52.034;5.342;2023-11-21T07:07:57;9.80;;;5.00;;
19280;SDS011;9774;52.034;5.342;2023-11-21T07:10:29;7.70;;;4.70;;
19280;SDS011;9774;52.034;5.342;2023-11-21T07:12:56;8.18;;;5.07;;
19280;SDS011;9774;52.034;5.342;2023-11-21T07:15:23;6.95;;;3.97;;
19280;SDS011;9774;52.034;5.342;2023-11-21T07:17:52;7.88;;;4.00;;
19280;SDS011;9774;52.034;5.342;2023-11-21T07:20:19;9.80;;;4.90;;
19280;SDS011;9774;52.034;5.342;2023-11-21T07:22:46;5.82;;;4.30;;
19280;SDS011;9774;52.034;5.342;2023-11-21T07:25:13;7.90;;;4.00;;
19280;SDS011;9774;52.034;5.342;2023-11-21T07:27:42;11.55;;;4.55;;
19280;SDS011;9774;52.034;5.342;2023-11-21T07:30:09;9.20;;;4.90;;
19280;SDS011;9774;52.034;5.342;2023-11-21T07:32:38;5.57;;;3.58;;
19280;SDS011;9774;52.034;5.342;2023-11-21T07:35:08;8.93;;;4.90;;
19280;SDS011;9774;52.034;5.342;2023-11-21T07:37:35;8.63;;;4.25;;
19280;SDS011;9774;52.034;5.342;2023-11-21T07:40:02;7.68;;;4.25;;
19280;SDS011;9774;52.034;5.342;2023-11-21T07:42:30;7.93;;;4.43;;
19280;SDS011;9774;52.034;5.342;2023-11-21T07:44:58;5.63;;;4.18;;
19280;SDS011;9774;52.034;5.342;2023-11-21T07:47:25;7.70;;;4.80;;
19280;SDS011;9774;52.034;5.342;2023-11-21T07:49:52;5.72;;;3.83;;
19280;SDS011;9774;52.034;5.342;2023-11-21T07:52:22;6.93;;;4.20;;
19280;SDS011;9774;52.034;5.342;2023-11-21T07:54:49;5.47;;;4.32;;
19280;SDS011;9774;52.034;5.342;2023-11-21T07:57:16;7.18;;;4.20;;
19280;SDS011;9774;52.034;5.342;2023-11-21T07:59:43;7.93;;;4.43;;
19280;SDS011;9774;52.034;5.342;2023-11-21T08:02:10;8.27;;;5.15;;
19280;SDS011;9774;52.034;5.342;2023-11-21T08:04:37;7.85;;;5.10;;
19280;SDS011;9774;52.034;5.342;2023-11-21T08:07:05;6.25;;;4.43;;
19280;SDS011;9774;52.034;5.342;2023-11-21T08:09:33;7.07;;;4.20;;
19280;SDS011;9774;52.034;5.342;2023-11-21T08:12:00;7.05;;;4.82;;
19280;SDS011;9774;52.034;5.342;2023-11-21T08:14:28;7.03;;;4.82;;
19280;SDS011;9774;52.034;5.342;2023-11-21T08:16:54;11.00;;;5.10;;
19280;SDS011;9774;52.034;5.342;2023-11-21T08:19:22;7.05;;;4.78;;
19280;SDS011;9774;52.034;5.342;2023-11-21T08:21:50;7.10;;;4.53;;
19280;SDS011;9774;52.034;5.342;2023-11-21T08:24:19;8.77;;;4.75;;
19280;SDS011;9774;52.034;5.342;2023-11-21T08:26:48;7.85;;;5.00;;
19280;SDS011;9774;52.034;5.342;2023-11-21T08:29:16;6.82;;;4.65;;
19280;SDS011;9774;52.034;5.342;2023-11-21T08:31:43;6.47;;;4.40;;
19280;SDS011;9774;52.034;5.342;2023-11-21T08:34:11;6.45;;;4.57;;
19280;SDS011;9774;52.034;5.342;2023-11-21T08:36:41;4.53;;;3.58;;
19280;SDS011;9774;52.034;5.342;2023-11-21T08:39:08;5.78;;;4.35;;
19280;SDS011;9774;52.034;5.342;2023-11-21T08:41:35;6.63;;;4.32;;
19280;SDS011;9774;52.034;5.342;2023-11-21T08:44:04;7.35;;;4.53;;
19280;SDS011;9774;52.034;5.342;2023-11-21T08:46:32;8.02;;;4.50;;
19280;SDS011;9774;52.034;5.342;2023-11-21T08:49:02;7.68;;;4.28;;
19280;SDS011;9774;52.034;5.342;2023-11-21T08:51:29;7.63;;;4.45;;
19280;SDS011;9774;52.034;5.342;2023-11-21T08:53:56;7.13;;;4.18;;
19280;SDS011;9774;52.034;5.342;2023-11-21T08:56:25;5.03;;;3.38;;
19280;SDS011;9774;52.034;5.342;2023-11-21T08:58:53;7.43;;;3.70;;
19280;SDS011;9774;52.034;5.342;2023-11-21T09:01:21;6.07;;;4.05;;
19280;SDS011;9774;52.034;5.342;2023-11-21T09:03:48;7.55;;;4.30;;
19280;SDS011;9774;52.034;5.342;2023-11-21T09:06:16;4.70;;;3.70;;
19280;SDS011;9774;52.034;5.342;2023-11-21T09:08:43;4.82;;;3.80;;
19280;SDS011;9774;52.034;5.342;2023-11-21T09:11:10;5.10;;;3.88;;
19280;SDS011;9774;52.034;5.342;2023-11-21T09:13:37;6.10;;;3.63;;
19280;SDS011;9774;52.034;5.342;2023-11-21T09:16:04;4.43;;;3.42;;
19280;SDS011;9774;52.034;5.342;2023-11-21T09:18:33;4.90;;;3.25;;
19280;SDS011;9774;52.034;5.342;2023-11-21T09:21:00;5.30;;;3.22;;
19280;SDS011;9774;52.034;5.342;2023-11-21T09:23:27;5.65;;;2.70;;
19280;SDS011;9774;52.034;5.342;2023-11-21T09:25:54;4.60;;;2.72;;
19280;SDS011;9774;52.034;5.342;2023-11-21T09:28:22;3.95;;;3.22;;
19280;SDS011;9774;52.034;5.342;2023-11-21T09:30:49;3.10;;;2.67;;
19280;SDS011;9774;52.034;5.342;2023-11-21T09:33:16;3.83;;;2.78;;
19280;SDS011;9774;52.034;5.342;2023-11-21T09:35:44;3.72;;;2.85;;
19280;SDS011;9774;52.034;5.342;2023-11-21T09:38:12;4.57;;;3.45;;
19280;SDS011;9774;52.034;5.342;2023-11-21T09:40:39;5.97;;;3.33;;
19280;SDS011;9774;52.034;5.342;2023-11-21T09:43:07;3.80;;;3.35;;
19280;SDS011;9774;52.034;5.342;2023-11-21T09:45:43;4.72;;;3.30;;
19280;SDS011;9774;52.034;5.342;2023-11-21T09:48:13;4.78;;;3.78;;
19280;SDS011;9774;52.034;5.342;2023-11-21T09:50:42;4.88;;;3.47;;
19280;SDS011;9774;52.034;5.342;2023-11-21T09:53:12;4.55;;;3.40;;
19280;SDS011;9774;52.034;5.342;2023-11-21T09:55:46;4.80;;;3.45;;
19280;SDS011;9774;52.034;5.342;2023-11-21T09:58:16;5.15;;;3.88;;
19280;SDS011;9774;52.034;5.342;2023-11-21T10:00:45;8.00;;;4.03;;
19280;SDS011;9774;52.034;5.342;2023-11-21T10:03:14;5.30;;;4.22;;
19280;SDS011;9774;52.034;5.342;2023-11-21T10:05:42;5.90;;;3.72;;
19280;SDS011;9774;52.034;5.342;2023-11-21T10:08:12;7.43;;;4.30;;
19280;SDS011;9774;52.034;5.342;2023-11-21T10:10:42;7.07;;;4.97;;
19280;SDS011;9774;52.034;5.342;2023-11-21T10:13:13;6.90;;;4.32;;
19280;SDS011;9774;52.034;5.342;2023-11-21T10:15:42;6.93;;;4.60;;
19280;SDS011;9774;52.034;5.342;2023-11-21T10:18:13;6.18;;;4.60;;
19280;SDS011;9774;52.034;5.342;2023-11-21T10:20:45;8.18;;;5.05;;
19280;SDS011;9774;52.034;5.342;2023-11-21T10:23:17;5.93;;;4.20;;
19280;SDS011;9774;52.034;5.342;2023-11-21T10:25:46;7.22;;;4.25;;
19280;SDS011;9774;52.034;5.342;2023-11-21T10:28:13;7.07;;;4.95;;
19280;SDS011;9774;52.034;5.342;2023-11-21T10:30:40;7.85;;;5.20;;
19280;SDS011;9774;52.034;5.342;2023-11-21T10:33:09;9.27;;;5.05;;
19280;SDS011;9774;52.034;5.342;2023-11-21T10:35:40;5.60;;;4.15;;
19280;SDS011;9774;52.034;5.342;2023-11-21T10:38:13;6.85;;;4.88;;
19280;SDS011;9774;52.034;5.342;2023-11-21T10:40:40;6.38;;;4.47;;
19280;SDS011;9774;52.034;5.342;2023-11-21T10:43:09;4.90;;;3.75;;
19280;SDS011;9774;52.034;5.342;2023-11-21T10:45:38;5.35;;;4.30;;
19280;SDS011;9774;52.034;5.342;2023-11-21T10:48:06;5.97;;;4.20;;
19280;SDS011;9774;52.034;5.342;2023-11-21T10:50:34;6.18;;;3.78;;
19280;SDS011;9774;52.034;5.342;2023-11-21T10:53:03;4.90;;;3.60;;
19280;SDS011;9774;52.034;5.342;2023-11-21T10:55:31;5.38;;;3.53;;
19280;SDS011;9774;52.034;5.342;2023-11-21T10:58:00;4.40;;;3.25;;
19280;SDS011;9774;52.034;5.342;2023-11-21T11:00:29;4.65;;;3.08;;
19280;SDS011;9774;52.034;5.342;2023-11-21T11:02:58;4.22;;;3.17;;
19280;SDS011;9774;52.034;5.342;2023-11-21T11:05:27;4.72;;;2.50;;
19280;SDS011;9774;52.034;5.342;2023-11-21T11:07:58;5.70;;;2.83;;
19280;SDS011;9774;52.034;5.342;2023-11-21T11:10:30;6.78;;;3.78;;
19280;SDS011;9774;52.034;5.342;2023-11-21T11:12:58;4.93;;;3.55;;
19280;SDS011;9774;52.034;5.342;2023-11-21T11:15:26;5.32;;;3.67;;
19280;SDS011;9774;52.034;5.342;2023-11-21T11:17:54;6.25;;;3.78;;
19280;SDS011;9774;52.034;5.342;2023-11-21T11:20:23;5.28;;;4.22;;
19280;SDS011;9774;52.034;5.342;2023-11-21T11:22:59;6.03;;;4.13;;
19280;SDS011;9774;52.034;5.342;2023-11-21T11:26:05;6.60;;;4.00;;
19280;SDS011;9774;52.034;5.342;2023-11-21T11:28:44;6.38;;;3.38;;
19280;SDS011;9774;52.034;5.342;2023-11-21T11:31:24;6.60;;;3.50;;
19280;SDS011;9774;52.034;5.342;2023-11-21T11:34:08;5.05;;;3.65;;
19280;SDS011;9774;52.034;5.342;2023-11-21T11:36:53;5.82;;;3.88;;
19280;SDS011;9774;52.034;5.342;2023-11-21T11:39:27;6.10;;;4.03;;
19280;SDS011;9774;52.034;5.342;2023-11-21T11:42:02;5.20;;;3.42;;
19280;SDS011;9774;52.034;5.342;2023-11-21T11:47:23;5.07;;;3.55;;
19280;SDS011;9774;52.034;5.342;2023-11-21T11:49:58;6.13;;;3.90;;
19280;SDS011;9774;52.034;5.342;2023-11-21T11:52:33;6.43;;;4.13;;
19280;SDS011;9774;52.034;5.342;2023-11-21T11:55:03;6.50;;;4.22;;
19280;SDS011;9774;52.034;5.342;2023-11-21T11:57:36;7.28;;;4.53;;
19280;SDS011;9774;52.034;5.342;2023-11-21T12:00:11;6.40;;;4.63;;
19280;SDS011;9774;52.034;5.342;2023-11-21T12:02:44;6.03;;;4.15;;
19280;SDS011;9774;52.034;5.342;2023-11-21T12:05:13;5.70;;;3.85;;
19280;SDS011;9774;52.034;5.342;2023-11-21T12:07:43;6.05;;;4.45;;
19280;SDS011;9774;52.034;5.342;2023-11-21T12:10:13;7.53;;;5.15;;
19280;SDS011;9774;52.034;5.342;2023-11-21T12:12:44;5.72;;;4.18;;
19280;SDS011;9774;52.034;5.342;2023-11-21T12:15:13;4.97;;;3.63;;
19280;SDS011;9774;52.034;5.342;2023-11-21T12:17:41;5.43;;;3.63;;
19280;SDS011;9774;52.034;5.342;2023-11-21T12:20:10;6.80;;;4.15;;
19280;SDS011;9774;52.034;5.342;2023-11-21T12:22:42;5.10;;;3.75;;
19280;SDS011;9774;52.034;5.342;2023-11-21T12:25:12;5.35;;;4.00;;
19280;SDS011;9774;52.034;5.342;2023-11-21T12:27:45;5.75;;;4.57;;
19280;SDS011;9774;52.034;5.342;2023-11-21T12:30:14;5.47;;;4.00;;
19280;SDS011;9774;52.034;5.342;2023-11-21T12:32:44;6.10;;;4.40;;
19280;SDS011;9774;52.034;5.342;2023-11-21T12:35:14;5.95;;;4.07;;
19280;SDS011;9774;52.034;5.342;2023-11-21T12:37:44;9.95;;;5.22;;
19280;SDS011;9774;52.034;5.342;2023-11-21T12:40:12;6.03;;;5.28;;
19280;SDS011;9774;52.034;5.342;2023-11-21T12:42:42;5.75;;;4.55;;
19280;SDS011;9774;52.034;5.342;2023-11-21T12:45:20;7.50;;;4.75;;
19280;SDS011;9774;52.034;5.342;2023-11-21T12:47:51;6.53;;;5.38;;
19280;SDS011;9774;52.034;5.342;2023-11-21T12:50:23;8.20;;;4.88;;
19280;SDS011;9774;52.034;5.342;2023-11-21T12:52:54;8.32;;;4.95;;
19280;SDS011;9774;52.034;5.342;2023-11-21T12:55:25;6.72;;;4.80;;
19280;SDS011;9774;52.034;5.342;2023-11-21T12:57:57;7.43;;;5.72;;
19280;SDS011;9774;52.034;5.342;2023-11-21T13:00:34;7.45;;;4.65;;
19280;SDS011;9774;52.034;5.342;2023-11-21T13:03:03;6.97;;;5.10;;
19280;SDS011;9774;52.034;5.342;2023-11-21T13:05:35;7.45;;;5.22;;
19280;SDS011;9774;52.034;5.342;2023-11-21T13:08:05;7.13;;;4.95;;
19280;SDS011;9774;52.034;5.342;2023-11-21T13:10:35;7.18;;;4.90;;
19280;SDS011;9774;52.034;5.342;2023-11-21T13:13:05;7.13;;;5.38;;
19280;SDS011;9774;52.034;5.342;2023-11-21T13:15:34;7.28;;;5.20;;
19280;SDS011;9774;52.034;5.342;2023-11-21T13:18:05;7.45;;;4.93;;
19280;SDS011;9774;52.034;5.342;2023-11-21T13:20:34;7.40;;;4.97;;
19280;SDS011;9774;52.034;5.342;2023-11-21T13:23:06;6.95;;;4.88;;
19280;SDS011;9774;52.034;5.342;2023-11-21T13:25:37;8.18;;;5.35;;
19280;SDS011;9774;52.034;5.342;2023-11-21T13:28:07;6.28;;;4.82;;
19280;SDS011;9774;52.034;5.342;2023-11-21T13:30:35;6.53;;;4.80;;
19280;SDS011;9774;52.034;5.342;2023-11-21T13:33:05;7.93;;;5.80;;
19280;SDS011;9774;52.034;5.342;2023-11-21T13:35:36;6.60;;;4.88;;
19280;SDS011;9774;52.034;5.342;2023-11-21T13:38:07;8.15;;;5.70;;
19280;SDS011;9774;52.034;5.342;2023-11-21T13:40:36;7.28;;;5.00;;
19280;SDS011;9774;52.034;5.342;2023-11-21T13:43:09;6.70;;;4.72;;
19280;SDS011;9774;52.034;5.342;2023-11-21T13:45:37;6.38;;;4.30;;
19280;SDS011;9774;52.034;5.342;2023-11-21T13:48:08;5.22;;;3.72;;
19280;SDS011;9774;52.034;5.342;2023-11-21T13:50:38;6.03;;;4.07;;
19280;SDS011;9774;52.034;5.342;2023-11-21T13:53:13;5.55;;;3.78;;
19280;SDS011;9774;52.034;5.342;2023-11-21T13:55:46;5.55;;;3.75;;
19280;SDS011;9774;52.034;5.342;2023-11-21T13:58:15;5.68;;;4.53;;
19280;SDS011;9774;52.034;5.342;2023-11-21T14:00:48;4.72;;;3.35;;
19280;SDS011;9774;52.034;5.342;2023-11-21T14:03:21;4.00;;;2.88;;
19280;SDS011;9774;52.034;5.342;2023-11-21T14:05:57;4.72;;;3.15;;
19280;SDS011;9774;52.034;5.342;2023-11-21T14:08:26;4.72;;;3.13;;
19280;SDS011;9774;52.034;5.342;2023-11-21T14:10:54;4.15;;;2.60;;
19280;SDS011;9774;52.034;5.342;2023-11-21T14:13:24;3.38;;;2.08;;
19280;SDS011;9774;52.034;5.342;2023-11-21T14:15:51;4.03;;;2.50;;
19280;SDS011;9774;52.034;5.342;2023-11-21T14:18:22;4.43;;;2.85;;
19280;SDS011;9774;52.034;5.342;2023-11-21T14:20:55;5.60;;;3.58;;
19280;SDS011;9774;52.034;5.342;2023-11-21T14:23:22;6.88;;;3.80;;
19280;SDS011;9774;52.034;5.342;2023-11-21T14:25:49;5.93;;;4.05;;
19280;SDS011;9774;52.034;5.342;2023-11-21T14:28:17;6.30;;;4.20;;
19280;SDS011;9774;52.034;5.342;2023-11-21T14:30:47;6.85;;;4.40;;
19280;SDS011;9774;52.034;5.342;2023-11-21T14:33:15;6.55;;;4.80;;
19280;SDS011;9774;52.034;5.342;2023-11-21T14:35:42;7.20;;;5.35;;
19280;SDS011;9774;52.034;5.342;2023-11-21T14:38:09;8.10;;;5.28;;
19280;SDS011;9774;52.034;5.342;2023-11-21T14:40:39;7.60;;;5.53;;
19280;SDS011;9774;52.034;5.342;2023-11-21T14:43:06;8.27;;;5.78;;
19280;SDS011;9774;52.034;5.342;2023-11-21T14:45:34;9.35;;;6.25;;
19280;SDS011;9774;52.034;5.342;2023-11-21T14:48:02;8.52;;;5.82;;
19280;SDS011;9774;52.034;5.342;2023-11-21T14:50:41;8.75;;;6.60;;
19280;SDS011;9774;52.034;5.342;2023-11-21T14:53:35;9.30;;;6.38;;
19280;SDS011;9774;52.034;5.342;2023-11-21T14:56:08;8.85;;;6.03;;
19280;SDS011;9774;52.034;5.342;2023-11-21T14:58:36;8.07;;;5.82;;
19280;SDS011;9774;52.034;5.342;2023-11-21T15:01:04;8.55;;;6.68;;
19280;SDS011;9774;52.034;5.342;2023-11-21T15:03:34;11.05;;;7.80;;
19280;SDS011;9774;52.034;5.342;2023-11-21T15:06:13;8.32;;;5.43;;
19280;SDS011;9774;52.034;5.342;2023-11-21T15:08:52;9.65;;;6.55;;
19280;SDS011;9774;52.034;5.342;2023-11-21T15:11:38;8.95;;;6.22;;
19280;SDS011;9774;52.034;5.342;2023-11-21T15:14:06;8.82;;;6.38;;